Time;durP1;ratioP1;P1;durP2;ratioP2;P2;SDS_P1;SDS_P2;PMS_P1;PMS_P2;Temp;Humidity;BMP_temperature;BMP_pressure;BME280_temperature;BME280_humidity;BME280_pressure;Samples;Min_cycle;Max_cycle;Signal;HPM_P1;HPM_P2
2022/01/05 00:00:34;;;;;;;4.22;1.67;;;;;;;;;;5072500;28;20130;-74
2022/01/05 00:03:00;;;;;;;5.32;1.80;;;;;;;;;;5072534;28;20396;-65
2022/01/05 00:05:27;;;;;;;5.97;2.00;;;;;;;;;;5073042;28;20551;-66
2022/01/05 00:07:53;;;;;;;5.93;1.67;;;;;;;;;;5072012;28;20036;-69
2022/01/05 00:10:19;;;;;;;3.80;1.63;;;;;;;;;;5072550;28;20638;-69
2022/01/05 00:12:45;;;;;;;4.07;1.58;;;;;;;;;;5072322;28;20599;-67
2022/01/05 00:15:11;;;;;;;3.38;1.65;;;;;;;;;;5072151;28;20614;-72
2022/01/05 00:17:37;;;;;;;3.75;1.63;;;;;;;;;;5072160;28;20029;-71
2022/01/05 00:20:03;;;;;;;3.30;1.55;;;;;;;;;;5072180;28;20028;-69
2022/01/05 00:22:30;;;;;;;3.05;1.38;;;;;;;;;;5072470;28;20036;-64
2022/01/05 00:24:56;;;;;;;3.83;1.60;;;;;;;;;;5070567;28;20028;-67
2022/01/05 00:27:22;;;;;;;5.38;1.77;;;;;;;;;;5071706;28;20032;-66
2022/01/05 00:29:48;;;;;;;5.28;1.98;;;;;;;;;;5071712;28;20550;-65
2022/01/05 00:32:14;;;;;;;8.73;1.65;;;;;;;;;;5070471;28;20063;-67
2022/01/05 00:34:40;;;;;;;3.90;1.70;;;;;;;;;;5070520;28;20477;-70
2022/01/05 00:37:06;;;;;;;4.32;1.85;;;;;;;;;;5075561;28;20389;-75
2022/01/05 00:39:32;;;;;;;3.08;1.58;;;;;;;;;;5072191;28;20020;-69
2022/01/05 00:41:58;;;;;;;3.60;1.70;;;;;;;;;;5071830;28;20047;-75
2022/01/05 00:44:24;;;;;;;4.32;1.70;;;;;;;;;;5071789;28;20016;-73
2022/01/05 00:46:51;;;;;;;3.33;1.52;;;;;;;;;;5071638;28;20029;-67
2022/01/05 00:49:17;;;;;;;3.42;1.60;;;;;;;;;;5071567;28;20017;-68
2022/01/05 00:51:43;;;;;;;4.90;1.50;;;;;;;;;;5071483;28;20036;-73
2022/01/05 00:54:10;;;;;;;3.80;1.63;;;;;;;;;;5071622;28;20100;-74
2022/01/05 00:56:36;;;;;;;3.97;1.83;;;;;;;;;;5072073;28;20025;-74
2022/01/05 00:59:03;;;;;;;4.30;1.60;;;;;;;;;;5071449;28;20599;-74
2022/01/05 01:01:29;;;;;;;4.00;1.90;;;;;;;;;;5071498;28;20021;-75
2022/01/05 01:03:55;;;;;;;4.47;1.63;;;;;;;;;;5071504;28;20028;-72
2022/01/05 01:06:21;;;;;;;3.28;1.50;;;;;;;;;;5071450;28;20031;-74
2022/01/05 01:08:47;;;;;;;3.90;1.58;;;;;;;;;;5071459;28;20036;-72
2022/01/05 01:11:14;;;;;;;4.00;1.88;;;;;;;;;;5071153;28;20512;-74
2022/01/05 01:13:40;;;;;;;3.63;1.45;;;;;;;;;;5071875;28;20090;-74
2022/01/05 01:16:06;;;;;;;5.60;1.63;;;;;;;;;;5084830;28;20095;-72
2022/01/05 01:18:35;;;;;;;4.75;1.80;;;;;;;;;;5090912;28;20439;-75
2022/01/05 01:21:01;;;;;;;5.95;1.75;;;;;;;;;;5091502;28;20069;-71
2022/01/05 01:23:27;;;;;;;4.45;1.90;;;;;;;;;;5091442;28;20040;-72
2022/01/05 01:25:53;;;;;;;4.10;1.60;;;;;;;;;;5091462;28;20390;-66
2022/01/05 01:28:21;;;;;;;6.15;1.70;;;;;;;;;;5090576;28;20404;-69
2022/01/05 01:30:48;;;;;;;6.53;1.65;;;;;;;;;;5091452;28;20465;-73
2022/01/05 01:33:14;;;;;;;4.20;1.80;;;;;;;;;;5089955;28;20047;-71
2022/01/05 01:35:40;;;;;;;3.58;1.75;;;;;;;;;;5089053;28;20159;-64
2022/01/05 01:38:06;;;;;;;11.65;2.20;;;;;;;;;;5074376;28;20032;-75
2022/01/05 01:40:33;;;;;;;10.10;2.60;;;;;;;;;;5070814;28;20035;-75
2022/01/05 01:42:59;;;;;;;8.82;1.88;;;;;;;;;;5081278;28;20484;-75
2022/01/05 01:45:26;;;;;;;9.02;1.73;;;;;;;;;;5089705;28;20024;-75
2022/01/05 01:47:52;;;;;;;6.93;2.10;;;;;;;;;;5089945;28;20016;-75
2022/01/05 01:50:18;;;;;;;6.18;1.70;;;;;;;;;;5090923;28;20385;-75
2022/01/05 01:52:44;;;;;;;8.65;1.60;;;;;;;;;;5090770;28;20044;-74
2022/01/05 01:55:11;;;;;;;4.38;1.60;;;;;;;;;;5080113;28;20791;-72
2022/01/05 01:57:39;;;;;;;6.88;2.13;;;;;;;;;;5070726;28;20020;-75
2022/01/05 02:00:06;;;;;;;5.32;1.40;;;;;;;;;;5070683;28;20028;-66
2022/01/05 02:02:32;;;;;;;6.40;1.90;;;;;;;;;;5070831;28;20077;-66
2022/01/05 02:04:58;;;;;;;6.22;1.55;;;;;;;;;;5071448;28;20020;-68
2022/01/05 02:07:24;;;;;;;5.88;1.60;;;;;;;;;;5070569;28;20025;-74
2022/01/05 02:09:50;;;;;;;9.02;1.83;;;;;;;;;;5070359;28;20044;-73
2022/01/05 02:12:16;;;;;;;3.53;1.60;;;;;;;;;;5070442;28;20045;-69
2022/01/05 02:14:42;;;;;;;4.93;1.50;;;;;;;;;;5069318;28;20021;-68
2022/01/05 02:17:17;;;;;;;5.30;1.58;;;;;;;;;;5069175;28;20044;-74
2022/01/05 02:19:43;;;;;;;6.13;1.75;;;;;;;;;;5070691;28;20012;-68
2022/01/05 02:22:09;;;;;;;6.22;1.50;;;;;;;;;;5070450;28;20017;-74
2022/01/05 02:24:35;;;;;;;3.15;1.30;;;;;;;;;;5070464;28;20107;-73
2022/01/05 02:27:01;;;;;;;4.50;1.38;;;;;;;;;;5069325;28;20032;-74
2022/01/05 02:29:27;;;;;;;4.22;1.33;;;;;;;;;;5070182;28;20021;-70
2022/01/05 02:31:57;;;;;;;2.97;1.40;;;;;;;;;;5086523;28;20048;-75
2022/01/05 02:34:23;;;;;;;3.33;1.42;;;;;;;;;;5094438;28;20464;-73
2022/01/05 02:36:49;;;;;;;6.57;1.70;;;;;;;;;;5092253;28;20564;-75
2022/01/05 02:39:15;;;;;;;2.65;1.10;;;;;;;;;;5094446;28;20096;-75
2022/01/05 02:41:41;;;;;;;4.78;1.60;;;;;;;;;;5094091;28;20032;-74
2022/01/05 02:44:07;;;;;;;8.70;1.58;;;;;;;;;;5092723;28;20012;-67
2022/01/05 02:46:34;;;;;;;2.97;1.60;;;;;;;;;;5094126;28;20500;-68
2022/01/05 02:49:02;;;;;;;3.20;1.40;;;;;;;;;;5095096;28;20028;-72
2022/01/05 02:51:28;;;;;;;5.35;1.42;;;;;;;;;;5094535;28;20036;-74
2022/01/05 02:53:55;;;;;;;3.20;1.30;;;;;;;;;;5092606;28;20031;-68
2022/01/05 02:56:21;;;;;;;3.17;1.40;;;;;;;;;;5073717;28;20032;-68
2022/01/05 02:58:47;;;;;;;3.45;1.25;;;;;;;;;;5073709;28;20173;-68
2022/01/05 03:01:13;;;;;;;1.88;1.10;;;;;;;;;;5081766;28;20024;-69
2022/01/05 03:03:39;;;;;;;6.18;1.52;;;;;;;;;;5093909;28;20031;-74
2022/01/05 03:06:05;;;;;;;2.83;1.30;;;;;;;;;;5093851;28;20500;-72
2022/01/05 03:08:31;;;;;;;4.63;1.38;;;;;;;;;;5094027;28;20032;-70
2022/01/05 03:10:57;;;;;;;20.13;2.03;;;;;;;;;;5084782;28;20028;-69
2022/01/05 03:13:24;;;;;;;3.50;1.42;;;;;;;;;;5073647;28;20056;-70
2022/01/05 03:15:54;;;;;;;5.47;1.55;;;;;;;;;;5073015;28;20039;-68
2022/01/05 03:18:21;;;;;;;8.00;1.48;;;;;;;;;;5073133;28;20023;-67
2022/01/05 03:20:47;;;;;;;2.92;1.40;;;;;;;;;;5073252;28;20020;-73
2022/01/05 03:23:13;;;;;;;3.50;1.55;;;;;;;;;;5071899;28;20055;-72
2022/01/05 03:25:40;;;;;;;3.33;1.20;;;;;;;;;;5072029;28;20059;-67
2022/01/05 03:28:06;;;;;;;5.43;1.75;;;;;;;;;;5071824;28;20493;-68
2022/01/05 03:30:33;;;;;;;5.40;1.15;;;;;;;;;;5073279;28;20105;-67
2022/01/05 03:35:27;;;;;;;4.18;1.70;;;;;;;;;;5073204;28;20025;-74
2022/01/05 03:37:53;;;;;;;3.38;1.45;;;;;;;;;;5073045;28;20104;-71
2022/01/05 03:40:19;;;;;;;3.30;1.40;;;;;;;;;;5071705;28;20394;-71
2022/01/05 03:42:45;;;;;;;2.75;1.30;;;;;;;;;;5072703;28;20016;-73
2022/01/05 03:45:12;;;;;;;3.13;1.52;;;;;;;;;;5073214;28;20413;-75
2022/01/05 03:47:38;;;;;;;2.50;1.17;;;;;;;;;;5071675;28;20020;-72
2022/01/05 03:50:05;;;;;;;3.80;1.65;;;;;;;;;;5072950;28;20028;-74
2022/01/05 03:52:31;;;;;;;4.50;1.58;;;;;;;;;;5073106;28;20081;-72
2022/01/05 03:54:57;;;;;;;2.53;1.25;;;;;;;;;;5071693;28;20611;-73
2022/01/05 03:57:24;;;;;;;3.72;1.10;;;;;;;;;;5073061;28;20036;-78
2022/01/05 03:59:51;;;;;;;5.22;1.67;;;;;;;;;;5072963;28;20009;-74
2022/01/05 04:02:17;;;;;;;4.95;1.60;;;;;;;;;;5072666;28;20028;-71
2022/01/05 04:04:43;;;;;;;4.07;1.55;;;;;;;;;;5072565;28;20021;-73
2022/01/05 04:07:09;;;;;;;2.50;1.20;;;;;;;;;;5072866;28;20029;-75
2022/01/05 04:09:36;;;;;;;4.95;1.60;;;;;;;;;;5072859;28;20025;-71
2022/01/05 04:12:02;;;;;;;3.38;1.40;;;;;;;;;;5072484;28;20454;-75
2022/01/05 04:14:28;;;;;;;3.38;1.30;;;;;;;;;;5072595;28;20059;-75
2022/01/05 04:16:54;;;;;;;4.18;1.50;;;;;;;;;;5072562;28;20035;-75
2022/01/05 04:19:20;;;;;;;4.47;1.40;;;;;;;;;;5072715;28;20090;-72
2022/01/05 04:21:46;;;;;;;3.72;1.63;;;;;;;;;;5071194;28;20028;-69
2022/01/05 04:24:12;;;;;;;5.05;1.40;;;;;;;;;;5072260;28;20100;-75
2022/01/05 04:26:38;;;;;;;4.13;1.48;;;;;;;;;;5072516;28;20024;-74
2022/01/05 04:29:04;;;;;;;3.78;1.55;;;;;;;;;;5072140;28;20092;-67
2022/01/05 04:31:30;;;;;;;2.92;1.35;;;;;;;;;;5072296;28;20037;-67
2022/01/05 04:33:56;;;;;;;4.28;1.42;;;;;;;;;;5072240;28;20036;-66
2022/01/05 04:36:22;;;;;;;3.45;1.33;;;;;;;;;;5072265;28;20024;-67
2022/01/05 04:38:48;;;;;;;3.05;1.20;;;;;;;;;;5072065;28;20032;-67
2022/01/05 04:41:14;;;;;;;3.05;1.52;;;;;;;;;;5072015;28;20028;-66
2022/01/05 04:43:40;;;;;;;2.42;1.35;;;;;;;;;;5070699;28;20115;-68
2022/01/05 04:46:06;;;;;;;3.13;1.30;;;;;;;;;;5071908;28;20030;-72
2022/01/05 04:48:32;;;;;;;3.00;1.45;;;;;;;;;;5071860;28;20033;-72
2022/01/05 04:50:58;;;;;;;3.60;1.52;;;;;;;;;;5071796;28;20028;-69
2022/01/05 04:53:24;;;;;;;4.45;1.48;;;;;;;;;;5070419;28;20055;-70
2022/01/05 04:55:50;;;;;;;2.60;1.20;;;;;;;;;;5071638;28;20380;-65
2022/01/05 04:58:16;;;;;;;3.38;1.45;;;;;;;;;;5071554;28;20024;-73
2022/01/05 05:00:43;;;;;;;3.47;1.55;;;;;;;;;;5071451;28;20023;-74
2022/01/05 05:03:09;;;;;;;3.15;1.30;;;;;;;;;;5071487;28;20021;-72
2022/01/05 05:05:35;;;;;;;3.35;1.40;;;;;;;;;;5071445;28;20024;-74
2022/01/05 05:08:02;;;;;;;3.63;1.30;;;;;;;;;;5071738;28;20046;-74
2022/01/05 05:10:28;;;;;;;3.47;1.00;;;;;;;;;;5071049;28;20118;-76
2022/01/05 05:12:54;;;;;;;3.90;1.50;;;;;;;;;;5070833;28;20107;-77
2022/01/05 05:15:20;;;;;;;3.42;1.40;;;;;;;;;;5071230;28;20047;-76
2022/01/05 05:17:46;;;;;;;3.17;1.40;;;;;;;;;;5069812;28;20031;-76
2022/01/05 05:20:12;;;;;;;2.92;1.30;;;;;;;;;;5071196;28;20042;-68
2022/01/05 05:22:38;;;;;;;3.03;1.42;;;;;;;;;;5071089;28;20113;-71
2022/01/05 05:25:05;;;;;;;2.58;1.15;;;;;;;;;;5071409;28;20542;-75
2022/01/05 05:27:31;;;;;;;4.15;1.20;;;;;;;;;;5071144;28;20032;-75
2022/01/05 05:29:57;;;;;;;3.15;1.40;;;;;;;;;;5071253;28;20023;-69
2022/01/05 05:32:23;;;;;;;6.00;1.48;;;;;;;;;;5071377;28;20051;-70
2022/01/05 05:34:49;;;;;;;4.13;1.38;;;;;;;;;;5071045;28;20024;-69
2022/01/05 05:37:16;;;;;;;3.47;1.65;;;;;;;;;;5071076;28;20028;-65
2022/01/05 05:39:42;;;;;;;2.30;1.10;;;;;;;;;;5070864;28;20040;-70
2022/01/05 05:42:09;;;;;;;2.70;1.42;;;;;;;;;;5071162;28;20013;-74
2022/01/05 05:44:35;;;;;;;3.30;1.35;;;;;;;;;;5071609;28;20046;-74
2022/01/05 05:47:01;;;;;;;3.35;1.20;;;;;;;;;;5071274;28;20028;-70
2022/01/05 05:49:27;;;;;;;2.83;1.30;;;;;;;;;;5071357;28;20024;-75
2022/01/05 05:51:53;;;;;;;2.20;1.15;;;;;;;;;;5071156;28;20677;-74
2022/01/05 05:54:19;;;;;;;4.05;1.70;;;;;;;;;;5071089;28;20025;-69
2022/01/05 05:56:45;;;;;;;5.82;1.60;;;;;;;;;;5070926;28;20508;-71
2022/01/05 05:59:12;;;;;;;3.17;1.25;;;;;;;;;;5071018;28;20099;-73
2022/01/05 06:01:38;;;;;;;2.78;1.35;;;;;;;;;;5070900;28;20025;-74
2022/01/05 06:04:04;;;;;;;2.08;1.05;;;;;;;;;;5071213;28;20491;-73
2022/01/05 06:06:30;;;;;;;3.88;1.52;;;;;;;;;;5074998;28;20024;-75
2022/01/05 06:08:56;;;;;;;3.78;1.80;;;;;;;;;;5074897;28;20389;-74
2022/01/05 06:11:22;;;;;;;3.25;1.45;;;;;;;;;;5074588;28;20035;-74
2022/01/05 06:13:50;;;;;;;2.65;1.08;;;;;;;;;;5074847;28;20031;-74
2022/01/05 06:16:16;;;;;;;6.35;1.55;;;;;;;;;;5073486;28;20029;-66
2022/01/05 06:18:42;;;;;;;4.70;1.50;;;;;;;;;;5074836;28;20028;-70
2022/01/05 06:21:08;;;;;;;5.22;1.75;;;;;;;;;;5074559;28;20674;-64
2022/01/05 06:23:34;;;;;;;3.78;1.83;;;;;;;;;;5074311;28;20128;-71
2022/01/05 06:26:00;;;;;;;3.00;1.30;;;;;;;;;;5074312;28;20024;-73
2022/01/05 06:28:26;;;;;;;3.90;1.55;;;;;;;;;;5074521;28;20070;-72
2022/01/05 06:30:52;;;;;;;3.55;1.50;;;;;;;;;;5072869;28;20020;-65
2022/01/05 06:33:18;;;;;;;3.83;1.80;;;;;;;;;;5074102;28;20107;-67
2022/01/05 06:35:45;;;;;;;4.03;1.75;;;;;;;;;;5074528;28;20024;-66
2022/01/05 06:38:11;;;;;;;3.53;1.63;;;;;;;;;;5074796;28;20021;-66
2022/01/05 06:40:37;;;;;;;6.45;1.70;;;;;;;;;;5074641;28;20025;-65
2022/01/05 06:43:03;;;;;;;3.55;1.77;;;;;;;;;;5074041;28;20020;-63
2022/01/05 06:45:30;;;;;;;4.43;1.80;;;;;;;;;;5074146;28;20027;-69
2022/01/05 06:47:56;;;;;;;4.30;1.55;;;;;;;;;;5074061;28;20374;-65
2022/01/05 06:50:22;;;;;;;6.57;1.67;;;;;;;;;;5073463;28;20055;-68
2022/01/05 06:52:49;;;;;;;4.55;1.58;;;;;;;;;;5072660;28;20082;-71
2022/01/05 06:55:15;;;;;;;5.70;1.83;;;;;;;;;;5073934;28;20036;-71
2022/01/05 06:57:41;;;;;;;4.47;2.00;;;;;;;;;;5073941;28;20021;-65
2022/01/05 07:00:12;;;;;;;4.03;2.00;;;;;;;;;;5072682;28;20380;-70
2022/01/05 07:02:38;;;;;;;4.53;1.85;;;;;;;;;;5073904;28;20530;-72
2022/01/05 07:05:04;;;;;;;4.55;1.98;;;;;;;;;;5073839;28;20056;-71
2022/01/05 07:07:30;;;;;;;4.05;1.98;;;;;;;;;;5072335;28;20026;-69
2022/01/05 07:09:56;;;;;;;4.03;2.00;;;;;;;;;;5073725;28;20035;-72
2022/01/05 07:12:23;;;;;;;3.60;2.15;;;;;;;;;;5073789;28;20036;-68
2022/01/05 07:14:49;;;;;;;5.20;2.10;;;;;;;;;;5072448;28;20088;-72
2022/01/05 07:17:15;;;;;;;5.60;2.15;;;;;;;;;;5072254;28;20484;-65
2022/01/05 07:19:41;;;;;;;3.90;1.95;;;;;;;;;;5072309;28;20087;-70
2022/01/05 07:22:07;;;;;;;5.05;1.90;;;;;;;;;;5073298;28;20025;-64
2022/01/05 07:24:33;;;;;;;5.47;2.50;;;;;;;;;;5073808;28;20077;-73
2022/01/05 07:26:59;;;;;;;4.90;2.30;;;;;;;;;;5072124;28;20024;-74
2022/01/05 07:29:25;;;;;;;4.43;2.10;;;;;;;;;;5072272;28;20025;-70
2022/01/05 07:31:51;;;;;;;4.53;2.10;;;;;;;;;;5073164;28;20043;-69
2022/01/05 07:34:17;;;;;;;5.38;2.15;;;;;;;;;;5073391;28;20073;-67
2022/01/05 07:36:43;;;;;;;4.60;2.20;;;;;;;;;;5071903;28;20021;-69
2022/01/05 07:39:10;;;;;;;5.18;2.13;;;;;;;;;;5073127;28;20021;-70
2022/01/05 07:41:37;;;;;;;5.72;2.40;;;;;;;;;;5071956;28;20179;-73
2022/01/05 07:44:04;;;;;;;3.78;2.22;;;;;;;;;;5073075;28;20135;-74
2022/01/05 07:46:30;;;;;;;4.95;2.67;;;;;;;;;;5073053;28;20020;-67
2022/01/05 07:48:56;;;;;;;4.95;2.05;;;;;;;;;;5072950;28;20601;-68
2022/01/05 07:51:22;;;;;;;7.93;2.70;;;;;;;;;;5072774;28;20041;-70
2022/01/05 07:53:48;;;;;;;3.80;1.90;;;;;;;;;;5071689;28;20021;-64
2022/01/05 07:56:15;;;;;;;7.45;2.67;;;;;;;;;;5072742;28;20051;-71
2022/01/05 07:58:41;;;;;;;4.75;2.38;;;;;;;;;;5072909;28;20009;-73
2022/01/05 08:01:07;;;;;;;4.32;2.20;;;;;;;;;;5072699;28;20017;-69
2022/01/05 08:03:33;;;;;;;5.60;2.28;;;;;;;;;;5072540;28;20025;-72
2022/01/05 08:06:08;;;;;;;8.75;2.47;;;;;;;;;;5072527;28;20089;-68
2022/01/05 08:08:34;;;;;;;6.22;2.15;;;;;;;;;;5072541;28;20043;-73
2022/01/05 08:11:00;;;;;;;5.20;2.35;;;;;;;;;;5072377;28;20032;-70
2022/01/05 08:13:27;;;;;;;6.90;2.33;;;;;;;;;;5072541;28;20381;-65
2022/01/05 08:15:53;;;;;;;5.80;2.38;;;;;;;;;;5072552;28;20017;-67
2022/01/05 08:18:20;;;;;;;8.02;2.40;;;;;;;;;;5072547;28;20021;-69
2022/01/05 08:20:46;;;;;;;6.18;2.60;;;;;;;;;;5071209;28;20020;-68
2022/01/05 08:23:22;;;;;;;6.90;2.35;;;;;;;;;;5072154;28;20044;-68
2022/01/05 08:25:49;;;;;;;6.93;2.10;;;;;;;;;;5072445;28;20078;-70
2022/01/05 08:28:16;;;;;;;4.93;2.42;;;;;;;;;;5071902;28;20045;-70
2022/01/05 08:30:44;;;;;;;4.78;2.08;;;;;;;;;;5072207;28;20025;-66
2022/01/05 08:33:10;;;;;;;13.10;2.50;;;;;;;;;;5071998;28;20043;-74
2022/01/05 08:35:37;;;;;;;7.13;2.38;;;;;;;;;;5071901;28;20063;-69
2022/01/05 08:38:03;;;;;;;5.72;2.13;;;;;;;;;;5071918;28;20416;-73
2022/01/05 08:40:29;;;;;;;4.47;1.90;;;;;;;;;;5072057;28;20020;-70
2022/01/05 08:42:56;;;;;;;4.75;2.10;;;;;;;;;;5087312;28;20108;-71
2022/01/05 08:45:23;;;;;;;4.32;1.98;;;;;;;;;;5091785;28;20027;-73
2022/01/05 08:47:50;;;;;;;6.15;2.60;;;;;;;;;;5092334;28;20028;-69
2022/01/05 08:50:16;;;;;;;6.43;1.80;;;;;;;;;;5078811;28;20427;-71
2022/01/05 08:52:43;;;;;;;5.32;1.60;;;;;;;;;;5082107;28;20072;-73
2022/01/05 08:55:09;;;;;;;18.25;2.58;;;;;;;;;;5092309;28;20023;-72
2022/01/05 08:57:35;;;;;;;16.08;2.80;;;;;;;;;;5090594;28;20039;-67
2022/01/05 09:00:01;;;;;;;6.43;2.00;;;;;;;;;;5071353;28;20401;-71
2022/01/05 09:02:28;;;;;;;10.68;2.00;;;;;;;;;;5069936;28;20166;-68
2022/01/05 09:04:54;;;;;;;6.93;2.05;;;;;;;;;;5071038;28;20009;-72
2022/01/05 09:07:20;;;;;;;7.72;1.67;;;;;;;;;;5071529;28;20249;-76
2022/01/05 09:09:46;;;;;;;4.22;1.80;;;;;;;;;;5071743;28;20099;-71
2022/01/05 09:12:12;;;;;;;6.38;1.83;;;;;;;;;;5071593;28;20078;-69
2022/01/05 09:14:39;;;;;;;6.45;2.22;;;;;;;;;;5071553;28;20095;-65
2022/01/05 09:17:06;;;;;;;6.35;1.85;;;;;;;;;;5071564;28;20052;-72
2022/01/05 09:19:32;;;;;;;4.78;1.60;;;;;;;;;;5071450;28;20373;-68
2022/01/05 09:21:58;;;;;;;6.20;1.90;;;;;;;;;;5071217;28;20024;-73
2022/01/05 09:24:25;;;;;;;7.82;1.80;;;;;;;;;;5071370;28;20021;-76
2022/01/05 09:26:51;;;;;;;3.92;1.50;;;;;;;;;;5071340;28;20020;-76
2022/01/05 09:29:18;;;;;;;6.45;1.77;;;;;;;;;;5071034;28;20059;-72
2022/01/05 09:31:44;;;;;;;6.03;1.70;;;;;;;;;;5071460;28;20387;-83
2022/01/05 09:34:11;;;;;;;12.82;2.08;;;;;;;;;;5078277;28;20017;-70
2022/01/05 09:36:43;;;;;;;10.00;1.75;;;;;;;;;;5091066;28;20020;-75
2022/01/05 09:41:56;;;;;;;5.00;1.80;;;;;;;;;;5091449;28;20265;-71
2022/01/05 09:44:25;;;;;;;6.50;1.67;;;;;;;;;;5091095;28;20039;-66
2022/01/05 09:46:55;;;;;;;5.43;1.45;;;;;;;;;;5091093;28;20039;-76
2022/01/05 09:49:40;;;;;;;4.85;1.55;;;;;;;;;;5091450;28;20661;-82
2022/01/05 09:52:07;;;;;;;5.35;1.95;;;;;;;;;;5091400;28;20116;-68
2022/01/05 09:54:38;;;;;;;5.55;1.75;;;;;;;;;;5091679;28;20032;-79
2022/01/05 09:57:05;;;;;;;3.42;1.42;;;;;;;;;;5091465;28;20141;-75
2022/01/05 09:59:34;;;;;;;5.03;1.40;;;;;;;;;;5091587;28;20073;-72
2022/01/05 10:02:02;;;;;;;7.07;1.50;;;;;;;;;;5091525;28;20073;-73
2022/01/05 10:04:28;;;;;;;7.95;1.40;;;;;;;;;;5090159;28;20032;-80
2022/01/05 10:06:54;;;;;;;5.00;1.70;;;;;;;;;;5091856;28;20012;-80
2022/01/05 10:09:21;;;;;;;8.23;1.92;;;;;;;;;;5090856;28;20024;-80
2022/01/05 10:11:47;;;;;;;4.32;1.70;;;;;;;;;;5091315;28;20111;-78
2022/01/05 10:14:13;;;;;;;4.80;1.45;;;;;;;;;;5091514;28;20491;-77
2022/01/05 10:17:02;;;;;;;6.15;1.98;;;;;;;;;;5091341;28;20036;-69
2022/01/05 10:19:28;;;;;;;5.28;1.38;;;;;;;;;;5091402;28;20391;-76
2022/01/05 10:21:55;;;;;;;6.03;1.73;;;;;;;;;;5091158;28;20028;-77
2022/01/05 10:24:40;;;;;;;3.85;1.52;;;;;;;;;;5089893;28;20032;-81
2022/01/05 10:27:06;;;;;;;4.97;1.58;;;;;;;;;;5091378;28;20038;-78
2022/01/05 10:29:32;;;;;;;4.68;1.55;;;;;;;;;;5089677;28;20024;-75
2022/01/05 10:31:59;;;;;;;4.68;1.70;;;;;;;;;;5091115;28;20428;-83
2022/01/05 10:34:26;;;;;;;3.58;1.40;;;;;;;;;;5091180;28;20107;-80
2022/01/05 10:36:55;;;;;;;4.43;1.45;;;;;;;;;;5091137;28;20024;-80
2022/01/05 10:39:42;;;;;;;3.50;1.30;;;;;;;;;;5091311;28;20024;-76
2022/01/05 10:42:10;;;;;;;4.93;1.50;;;;;;;;;;5091258;28;20032;-81
2022/01/05 10:44:37;;;;;;;2.55;1.30;;;;;;;;;;5091668;28;20024;-77
2022/01/05 10:47:05;;;;;;;2.70;1.27;;;;;;;;;;5091416;28;20049;-83
2022/01/05 10:49:32;;;;;;;4.15;1.50;;;;;;;;;;5091392;28;20169;-80
2022/01/05 10:52:00;;;;;;;2.50;1.00;;;;;;;;;;5094324;28;20035;-75
2022/01/05 10:54:27;;;;;;;8.38;1.40;;;;;;;;;;5094738;28;20047;-80
2022/01/05 10:56:53;;;;;;;1.90;1.00;;;;;;;;;;5094823;28;20008;-71
2022/01/05 10:59:35;;;;;;;4.00;1.40;;;;;;;;;;5094642;28;20031;-68
2022/01/05 11:02:19;;;;;;;5.53;1.40;;;;;;;;;;5094537;28;20472;-78
2022/01/05 11:04:45;;;;;;;3.10;1.02;;;;;;;;;;5094622;28;20684;-73
2022/01/05 11:07:19;;;;;;;5.78;1.35;;;;;;;;;;5094374;28;20035;-81
2022/01/05 11:09:55;;;;;;;3.40;0.90;;;;;;;;;;5094342;28;20472;-79
2022/01/05 11:12:30;;;;;;;2.08;1.02;;;;;;;;;;5092870;28;20089;-78
2022/01/05 11:14:59;;;;;;;3.70;1.08;;;;;;;;;;5094377;28;20021;-81
2022/01/05 11:17:25;;;;;;;3.30;1.10;;;;;;;;;;5093989;28;20047;-76
2022/01/05 11:19:51;;;;;;;4.65;1.00;;;;;;;;;;5094151;28;20032;-71
2022/01/05 11:22:18;;;;;;;3.28;0.77;;;;;;;;;;5094165;28;20024;-68
2022/01/05 11:24:44;;;;;;;3.25;0.80;;;;;;;;;;5094116;28;20099;-79
2022/01/05 11:27:12;;;;;;;2.75;0.80;;;;;;;;;;5094079;28;20081;-71
2022/01/05 11:29:39;;;;;;;2.30;1.08;;;;;;;;;;5094015;28;20684;-73
2022/01/05 11:32:07;;;;;;;3.08;0.73;;;;;;;;;;5093896;28;20111;-75
2022/01/05 11:34:33;;;;;;;2.35;0.70;;;;;;;;;;5094037;28;20180;-80
2022/01/05 11:37:01;;;;;;;1.25;0.73;;;;;;;;;;5094022;28;20055;-69
2022/01/05 11:39:28;;;;;;;1.88;0.73;;;;;;;;;;5088833;28;20092;-78
2022/01/05 11:41:55;;;;;;;2.78;0.82;;;;;;;;;;5073725;28;20025;-81
2022/01/05 11:44:21;;;;;;;6.43;0.80;;;;;;;;;;5072791;28;20020;-77
2022/01/05 11:46:47;;;;;;;5.43;1.00;;;;;;;;;;5088355;28;20032;-71
2022/01/05 11:49:15;;;;;;;7.55;0.98;;;;;;;;;;5094755;28;20021;-75
2022/01/05 11:51:45;;;;;;;5.38;0.95;;;;;;;;;;5093382;28;20039;-84
2022/01/05 11:54:23;;;;;;;11.13;1.30;;;;;;;;;;5074706;28;20047;-67
2022/01/05 11:56:51;;;;;;;4.40;1.00;;;;;;;;;;5072695;28;20017;-75
2022/01/05 11:59:25;;;;;;;5.05;0.85;;;;;;;;;;5088371;28;20039;-68
2022/01/05 12:02:02;;;;;;;3.72;1.05;;;;;;;;;;5092476;28;20035;-68
2022/01/05 12:04:28;;;;;;;2.15;0.70;;;;;;;;;;5093485;28;20404;-69
2022/01/05 12:07:01;;;;;;;6.15;0.90;;;;;;;;;;5093028;28;20541;-70
2022/01/05 12:09:30;;;;;;;4.07;0.85;;;;;;;;;;5093842;28;20020;-68
2022/01/05 12:11:59;;;;;;;5.72;1.00;;;;;;;;;;5092893;28;20032;-84
2022/01/05 12:14:25;;;;;;;6.28;0.88;;;;;;;;;;5093480;28;20031;-84
2022/01/05 12:16:57;;;;;;;3.97;0.80;;;;;;;;;;5076246;28;20494;-82
2022/01/05 12:19:24;;;;;;;1.88;0.50;;;;;;;;;;5073109;28;20021;-85
2022/01/05 12:21:51;;;;;;;2.10;0.80;;;;;;;;;;5072462;28;20033;-88
2022/01/05 12:24:18;;;;;;;1.45;0.60;;;;;;;;;;5074008;28;20052;-79
2022/01/05 12:26:44;;;;;;;2.95;1.02;;;;;;;;;;5072449;28;20033;-81
2022/01/05 12:29:11;;;;;;;2.55;0.80;;;;;;;;;;5073379;28;20039;-80
2022/01/05 12:31:54;;;;;;;1.98;0.60;;;;;;;;;;5073725;28;20154;-81
2022/01/05 12:34:39;;;;;;;5.38;0.77;;;;;;;;;;5073677;28;20021;-88
2022/01/05 12:37:25;;;;;;;2.90;0.85;;;;;;;;;;5074457;28;20107;-83
2022/01/05 12:39:51;;;;;;;8.50;0.80;;;;;;;;;;5073213;28;20012;-75
2022/01/05 12:42:24;;;;;;;2.10;0.85;;;;;;;;;;5072179;28;20391;-68
2022/01/05 12:44:50;;;;;;;1.95;0.50;;;;;;;;;;5072845;28;20008;-79
2022/01/05 12:47:17;;;;;;;1.75;0.60;;;;;;;;;;5075797;28;20114;-78
2022/01/05 12:49:43;;;;;;;2.38;0.70;;;;;;;;;;5076338;28;20516;-65
2022/01/05 12:52:13;;;;;;;1.92;0.70;;;;;;;;;;5074243;28;20064;-69
2022/01/05 12:54:42;;;;;;;3.63;0.70;;;;;;;;;;5072146;28;20017;-70
2022/01/05 12:57:09;;;;;;;2.25;0.80;;;;;;;;;;5072195;28;20028;-71
2022/01/05 12:59:40;;;;;;;1.73;0.73;;;;;;;;;;5071991;28;20438;-65
2022/01/05 13:02:11;;;;;;;4.57;1.20;;;;;;;;;;5072047;28;20473;-67
2022/01/05 13:04:38;;;;;;;2.22;0.75;;;;;;;;;;5071445;28;20101;-81
2022/01/05 13:07:05;;;;;;;1.77;0.77;;;;;;;;;;5072578;28;20028;-82
2022/01/05 13:09:33;;;;;;;1.63;0.77;;;;;;;;;;5072798;28;20107;-82
2022/01/05 13:12:04;;;;;;;1.77;0.80;;;;;;;;;;5072414;28;20504;-79
2022/01/05 13:14:31;;;;;;;3.22;0.90;;;;;;;;;;5070113;28;20029;-84
2022/01/05 13:16:57;;;;;;;3.97;0.75;;;;;;;;;;5072188;28;20047;-79
2022/01/05 13:19:24;;;;;;;2.50;0.85;;;;;;;;;;5071860;28;20074;-82
2022/01/05 13:21:50;;;;;;;1.60;0.80;;;;;;;;;;5072586;28;20028;-82
2022/01/05 13:24:16;;;;;;;2.03;0.95;;;;;;;;;;5072048;28;20481;-77
2022/01/05 13:26:59;;;;;;;1.58;0.73;;;;;;;;;;5071953;28;20035;-74
2022/01/05 13:29:28;;;;;;;3.75;0.60;;;;;;;;;;5071923;28;20020;-78
2022/01/05 13:32:05;;;;;;;1.63;0.70;;;;;;;;;;5070537;28;20033;-76
2022/01/05 13:34:32;;;;;;;1.50;0.60;;;;;;;;;;5072407;28;20207;-85
2022/01/05 13:36:58;;;;;;;3.63;1.00;;;;;;;;;;5072272;28;20051;-84
2022/01/05 13:39:54;;;;;;;1.77;0.70;;;;;;;;;;5071928;28;20025;-86
2022/01/05 13:42:29;;;;;;;2.38;0.80;;;;;;;;;;5063349;28;20068;-78
2022/01/05 13:44:55;;;;;;;2.65;0.65;;;;;;;;;;5071944;28;20051;-78
2022/01/05 13:47:23;;;;;;;1.75;0.70;;;;;;;;;;5072219;28;20504;-78
2022/01/05 13:50:05;;;;;;;1.98;0.80;;;;;;;;;;5072573;28;20090;-86
2022/01/05 13:52:31;;;;;;;1.48;0.70;;;;;;;;;;5072701;28;20032;-76
2022/01/05 13:54:57;;;;;;;1.77;0.80;;;;;;;;;;5072758;28;20088;-74
2022/01/05 13:57:30;;;;;;;0.80;0.45;;;;;;;;;;5073163;28;20028;-88
2022/01/05 14:00:00;;;;;;;1.23;0.63;;;;;;;;;;5072474;28;20023;-76
2022/01/05 14:02:30;;;;;;;0.95;0.57;;;;;;;;;;5072734;28;20029;-78
2022/01/05 14:04:58;;;;;;;1.55;0.70;;;;;;;;;;5072551;28;20024;-89
2022/01/05 14:07:25;;;;;;;1.92;0.73;;;;;;;;;;5071792;28;20388;-89
2022/01/05 14:10:09;;;;;;;2.30;0.80;;;;;;;;;;5071668;28;20496;-83
2022/01/05 14:12:40;;;;;;;4.18;0.77;;;;;;;;;;5072995;28;20037;-73
2022/01/05 14:15:07;;;;;;;1.95;0.73;;;;;;;;;;5071685;28;20021;-86
2022/01/05 14:17:33;;;;;;;1.52;0.70;;;;;;;;;;5072427;28;20021;-78
2022/01/05 14:20:32;;;;;;;1.42;0.70;;;;;;;;;;5072338;28;20099;-74
2022/01/05 14:23:09;;;;;;;1.33;0.73;;;;;;;;;;5049949;28;20055;-82
2022/01/05 14:25:36;;;;;;;1.42;0.70;;;;;;;;;;5073684;28;20096;-82
2022/01/05 14:28:14;;;;;;;5.18;0.90;;;;;;;;;;5076162;28;20017;-85
2022/01/05 14:30:48;;;;;;;1.00;0.57;;;;;;;;;;5076339;28;20424;-86
2022/01/05 14:33:24;;;;;;;2.33;0.80;;;;;;;;;;5075191;28;20559;-71
2022/01/05 14:35:50;;;;;;;2.22;0.88;;;;;;;;;;5074445;28;20093;-72
2022/01/05 14:38:16;;;;;;;1.67;0.70;;;;;;;;;;5075432;28;20032;-81
2022/01/05 14:40:43;;;;;;;1.90;0.98;;;;;;;;;;5091646;28;20456;-69
2022/01/05 14:43:14;;;;;;;1.27;0.60;;;;;;;;;;5095211;28;20020;-82
2022/01/05 14:45:41;;;;;;;1.50;0.63;;;;;;;;;;5094048;28;20039;-80
2022/01/05 14:48:07;;;;;;;2.33;0.60;;;;;;;;;;5094270;28;20044;-69
2022/01/05 14:50:35;;;;;;;1.85;0.77;;;;;;;;;;5095261;28;20036;-90